createdAt,value
2023-02-08T00:00:38.568Z,28.90
2023-02-08T00:03:05.780Z,30.37
2023-02-08T00:05:33.326Z,42.10
2023-02-08T00:08:00.912Z,26.70
2023-02-08T00:10:28.460Z,22.23
2023-02-08T00:12:55.999Z,16.27
2023-02-08T00:15:23.556Z,27.77
2023-02-08T00:17:51.250Z,35.33
2023-02-08T00:20:18.767Z,24.90
2023-02-08T00:22:46.372Z,31.67
2023-02-08T00:25:13.927Z,33.13
2023-02-08T00:27:41.451Z,38.70
2023-02-08T00:30:09.319Z,31.83
2023-02-08T00:32:36.849Z,33.53
2023-02-08T00:35:05.161Z,32.90
2023-02-08T00:37:32.736Z,27.53
2023-02-08T00:40:00.281Z,16.93
2023-02-08T00:42:27.821Z,14.83
2023-02-08T00:44:55.374Z,12.50
2023-02-08T00:47:22.907Z,24.33
2023-02-08T00:49:50.467Z,33.80
2023-02-08T00:52:18.070Z,31.27
2023-02-08T00:54:45.605Z,43.80
2023-02-08T00:57:13.931Z,46.40
2023-02-08T00:59:41.498Z,40.73
2023-02-08T01:02:09.073Z,38.70
2023-02-08T01:04:36.584Z,25.77
2023-02-08T01:07:04.167Z,25.07
2023-02-08T01:09:32.673Z,24.13
2023-02-08T01:12:00.142Z,21.33
2023-02-08T01:14:28.463Z,22.10
2023-02-08T01:16:56.002Z,19.53
2023-02-08T01:19:23.523Z,17.17
2023-02-08T01:21:51.088Z,15.27
2023-02-08T01:24:18.639Z,18.40
2023-02-08T01:26:46.160Z,15.47
2023-02-08T01:29:13.729Z,17.73
2023-02-08T01:31:41.364Z,17.33
2023-02-08T01:34:09.565Z,14.23
2023-02-08T01:36:37.434Z,19.27
2023-02-08T01:39:04.964Z,35.63
2023-02-08T01:41:32.535Z,32.10
2023-02-08T01:44:02.633Z,33.67
2023-02-08T01:46:30.143Z,31.17
2023-02-08T01:48:57.690Z,27.80
2023-02-08T01:51:25.524Z,20.30
2023-02-08T01:53:53.062Z,18.27
2023-02-08T01:56:21.362Z,19.17
2023-02-08T01:58:48.977Z,13.33
2023-02-08T02:01:16.540Z,11.93
2023-02-08T02:03:44.065Z,14.43
2023-02-08T02:06:14.612Z,14.13
2023-02-08T02:08:42.118Z,13.30
2023-02-08T02:11:09.644Z,14.75
2023-02-08T02:13:37.231Z,14.47
2023-02-08T02:16:05.649Z,12.13
2023-02-08T02:18:33.119Z,13.67
2023-02-08T02:21:21.698Z,10.57
2023-02-08T02:24:10.929Z,13.33
2023-02-08T02:26:47.530Z,12.30
2023-02-08T02:29:23.509Z,12.87
2023-02-08T02:32:11.171Z,13.37
2023-02-08T02:34:41.499Z,11.10
2023-02-08T02:37:29.768Z,11.27
2023-02-08T02:40:02.944Z,12.67
2023-02-08T02:42:48.772Z,11.27
2023-02-08T02:45:22.176Z,11.60
2023-02-08T02:47:59.135Z,11.47
2023-02-08T02:50:48.105Z,13.20
2023-02-08T02:53:24.574Z,14.50
2023-02-08T02:55:57.675Z,14.30
2023-02-08T02:58:25.973Z,13.80
2023-02-08T03:00:56.604Z,13.93
2023-02-08T03:03:24.096Z,12.90
2023-02-08T03:05:51.645Z,13.30
2023-02-08T03:08:24.681Z,12.87
2023-02-08T03:11:00.801Z,12.47
2023-02-08T03:13:49.640Z,13.47
2023-02-08T03:16:19.889Z,12.33
2023-02-08T03:19:18.378Z,11.63
2023-02-08T03:21:57.431Z,10.50
2023-02-08T03:24:33.689Z,12.63
2023-02-08T03:27:06.905Z,12.90
2023-02-08T03:29:37.922Z,13.83
2023-02-08T03:32:17.704Z,11.30
2023-02-08T03:34:54.314Z,11.57
2023-02-08T03:37:21.874Z,10.80
2023-02-08T03:39:49.461Z,11.37
2023-02-08T03:42:16.967Z,12.90
2023-02-08T03:44:47.802Z,13.83
2023-02-08T03:47:24.587Z,11.30
2023-02-08T03:49:52.156Z,11.53
2023-02-08T03:52:19.689Z,12.13
2023-02-08T03:54:50.372Z,11.27
2023-02-08T03:57:23.649Z,11.63
2023-02-08T03:59:51.040Z,10.57
2023-02-08T04:02:19.405Z,14.10
2023-02-08T04:04:46.899Z,10.87
2023-02-08T04:07:14.437Z,11.07
2023-02-08T04:09:42.726Z,13.27
2023-02-08T04:12:10.280Z,11.27
2023-02-08T04:14:37.832Z,12.67
2023-02-08T04:17:06.121Z,12.60
2023-02-08T04:19:33.696Z,11.43
2023-02-08T04:22:01.273Z,11.57
2023-02-08T04:24:28.774Z,9.57
2023-02-08T04:26:57.151Z,10.43
2023-02-08T04:29:24.675Z,9.77
2023-02-08T04:31:52.287Z,11.82
2023-02-08T04:34:19.799Z,11.83
2023-02-08T04:36:47.325Z,12.53
2023-02-08T04:39:14.864Z,11.57
2023-02-08T04:41:43.178Z,11.70
2023-02-08T04:44:10.708Z,11.87
2023-02-08T04:46:38.260Z,11.10
2023-02-08T04:49:05.811Z,12.77
2023-02-08T04:51:34.122Z,11.77
2023-02-08T04:54:01.676Z,12.60
2023-02-08T04:56:30.004Z,15.07
2023-02-08T04:58:57.530Z,12.80
2023-02-08T05:01:25.133Z,10.53
2023-02-08T05:03:52.724Z,13.57
2023-02-08T05:06:21.742Z,10.50
2023-02-08T05:08:49.269Z,13.97
2023-02-08T05:11:20.731Z,13.00
2023-02-08T05:13:48.256Z,19.73
2023-02-08T05:16:16.667Z,20.47
2023-02-08T05:18:45.353Z,18.33
2023-02-08T05:21:12.874Z,18.77
2023-02-08T05:23:40.450Z,17.63
2023-02-08T05:26:08.772Z,18.33
2023-02-08T05:28:36.327Z,19.63
2023-02-08T05:31:15.861Z,17.83
2023-02-08T05:33:43.261Z,15.77
2023-02-08T05:36:10.788Z,17.20
2023-02-08T05:38:38.369Z,15.77
2023-02-08T05:41:05.915Z,16.17
2023-02-08T05:43:33.433Z,15.73
2023-02-08T05:46:01.010Z,13.93
2023-02-08T05:48:28.602Z,13.03
2023-02-08T05:50:56.146Z,15.50
2023-02-08T05:53:23.758Z,14.87
2023-02-08T05:55:51.325Z,13.20
2023-02-08T05:58:18.825Z,14.67
2023-02-08T06:00:46.409Z,15.43
2023-02-08T06:03:14.651Z,12.03
2023-02-08T06:05:42.101Z,13.03
2023-02-08T06:08:09.697Z,10.87
2023-02-08T06:10:37.232Z,10.83
2023-02-08T06:13:04.775Z,10.87
2023-02-08T06:15:32.339Z,14.73
2023-02-08T06:17:59.876Z,14.10
2023-02-08T06:20:27.465Z,11.27
2023-02-08T06:22:55.032Z,21.30
2023-02-08T06:25:22.585Z,18.73
2023-02-08T06:27:50.167Z,12.30
2023-02-08T06:30:17.966Z,19.23
2023-02-08T06:32:45.733Z,17.67
2023-02-08T06:35:14.060Z,15.70
2023-02-08T06:37:41.624Z,21.90
2023-02-08T06:40:09.258Z,16.63
2023-02-08T06:42:36.812Z,25.93
2023-02-08T06:45:04.466Z,22.03
2023-02-08T06:47:32.018Z,19.77
2023-02-08T06:49:59.584Z,22.97
2023-02-08T06:52:27.185Z,21.73
2023-02-08T06:54:54.724Z,20.43
2023-02-08T06:57:22.266Z,24.40
2023-02-08T06:59:49.840Z,21.47
2023-02-08T07:02:17.405Z,20.27
2023-02-08T07:04:44.920Z,16.80
2023-02-08T07:07:13.261Z,21.00
2023-02-08T07:09:40.813Z,13.47
2023-02-08T07:12:08.385Z,19.30
2023-02-08T07:14:35.991Z,20.05
2023-02-08T07:17:03.533Z,16.37
2023-02-08T07:19:31.824Z,13.30
2023-02-08T07:22:02.562Z,15.60
2023-02-08T07:24:30.103Z,12.63
2023-02-08T07:26:57.662Z,15.93
2023-02-08T07:29:26.001Z,16.30
2023-02-08T07:31:53.570Z,13.10
2023-02-08T07:34:21.097Z,15.67
2023-02-08T07:36:48.702Z,16.37
2023-02-08T07:39:16.228Z,15.97
2023-02-08T07:41:43.762Z,15.87
2023-02-08T07:44:11.345Z,28.42
2023-02-08T07:46:38.920Z,19.53
2023-02-08T07:49:06.447Z,20.10
2023-02-08T07:51:34.024Z,17.97
2023-02-08T07:54:01.592Z,13.30
2023-02-08T07:56:29.110Z,14.47
2023-02-08T07:58:56.701Z,12.53
2023-02-08T08:01:24.267Z,12.03
2023-02-08T08:03:51.860Z,9.47
2023-02-08T08:06:19.365Z,15.87
2023-02-08T08:08:46.900Z,12.87
2023-02-08T08:11:15.180Z,19.27
2023-02-08T08:13:42.762Z,18.37
2023-02-08T08:16:10.289Z,17.03
2023-02-08T08:18:38.589Z,13.60
2023-02-08T08:21:06.175Z,11.10
2023-02-08T08:23:33.729Z,9.20
2023-02-08T08:26:01.263Z,9.90
2023-02-08T08:28:28.949Z,14.63
2023-02-08T08:30:56.477Z,13.20
2023-02-08T08:33:23.910Z,9.60
2023-02-08T08:35:52.254Z,14.47
2023-02-08T08:38:19.794Z,12.07
2023-02-08T08:40:47.301Z,8.90
2023-02-08T08:43:15.711Z,10.80
2023-02-08T08:45:43.248Z,11.27
2023-02-08T08:48:10.874Z,13.13
2023-02-08T08:50:38.957Z,14.53
2023-02-08T08:53:06.756Z,10.33
2023-02-08T08:55:34.277Z,11.33
2023-02-08T08:58:01.851Z,14.33
2023-02-08T09:00:30.152Z,12.53
2023-02-08T09:02:57.714Z,10.43
2023-02-08T09:05:26.408Z,11.07
2023-02-08T09:07:53.924Z,8.85
2023-02-08T09:10:22.282Z,9.47
2023-02-08T09:12:49.841Z,10.43
2023-02-08T09:15:17.350Z,10.20
2023-02-08T09:20:21.801Z,8.97
2023-02-08T09:22:49.285Z,10.20
2023-02-08T09:25:16.899Z,11.75
2023-02-08T09:27:44.491Z,11.03
2023-02-08T09:30:13.601Z,10.40
2023-02-08T09:32:41.145Z,10.10
2023-02-08T09:35:08.725Z,8.35
2023-02-08T09:37:36.266Z,8.63
2023-02-08T09:40:03.792Z,8.77
2023-02-08T09:42:31.358Z,6.73
2023-02-08T09:45:16.688Z,8.17
2023-02-08T09:47:46.909Z,11.40
2023-02-08T09:50:20.336Z,9.67
2023-02-08T09:52:50.482Z,9.00
2023-02-08T09:55:18.065Z,9.70
2023-02-08T09:57:45.576Z,8.40
2023-02-08T10:00:13.969Z,6.97
2023-02-08T10:02:41.560Z,6.23
2023-02-08T10:05:15.007Z,9.20
2023-02-08T10:07:42.601Z,6.90
2023-02-08T10:10:12.886Z,6.10
2023-02-08T10:12:47.422Z,7.57
2023-02-08T10:15:34.236Z,6.63
2023-02-08T10:18:20.207Z,6.53
2023-02-08T10:20:50.887Z,8.17
2023-02-08T10:23:48.585Z,8.27
2023-02-08T10:26:24.759Z,6.78
2023-02-08T10:29:01.178Z,6.30
2023-02-08T10:31:32.311Z,4.73
2023-02-08T10:34:03.547Z,7.33
2023-02-08T10:36:33.786Z,7.30
2023-02-08T10:39:01.361Z,7.17
2023-02-08T10:41:34.618Z,6.60
2023-02-08T10:44:02.131Z,6.40
2023-02-08T10:46:32.689Z,4.83
2023-02-08T10:49:06.412Z,6.53
2023-02-08T10:51:33.956Z,5.77
2023-02-08T10:54:02.297Z,5.33
2023-02-08T10:56:35.653Z,6.00
2023-02-08T10:59:03.177Z,7.00
2023-02-08T11:01:31.532Z,4.97
2023-02-08T11:04:01.910Z,5.50
2023-02-08T11:06:30.170Z,6.30
2023-02-08T11:08:57.774Z,6.30
2023-02-08T11:11:25.297Z,5.07
2023-02-08T11:13:52.824Z,9.17
2023-02-08T11:16:21.190Z,5.87
2023-02-08T11:18:48.690Z,4.30
2023-02-08T11:21:28.220Z,4.03
2023-02-08T11:23:55.745Z,5.83
2023-02-08T11:26:32.264Z,4.77
2023-02-08T11:28:59.833Z,6.70
2023-02-08T11:31:27.406Z,4.30
2023-02-08T11:34:06.501Z,7.23
2023-02-08T11:36:34.038Z,5.30
2023-02-08T11:39:02.349Z,6.87
2023-02-08T11:41:30.537Z,7.90
2023-02-08T11:43:58.075Z,4.27
2023-02-08T11:46:25.660Z,4.17
2023-02-08T11:48:53.315Z,3.77
2023-02-08T11:51:26.631Z,5.97
2023-02-08T11:53:54.264Z,4.67
2023-02-08T11:56:21.844Z,4.83
2023-02-08T11:59:01.414Z,4.43
2023-02-08T12:01:28.968Z,3.57
2023-02-08T12:03:57.685Z,3.50
2023-02-08T12:06:48.438Z,4.53
2023-02-08T12:09:21.745Z,4.53
2023-02-08T12:11:49.278Z,5.43
2023-02-08T12:14:16.848Z,4.93
2023-02-08T12:17:05.237Z,4.47
2023-02-08T12:20:03.795Z,4.03
2023-02-08T12:22:31.312Z,4.47
2023-02-08T12:25:17.293Z,4.73
2023-02-08T12:28:11.982Z,4.67
2023-02-08T12:30:54.414Z,4.50
2023-02-08T12:33:30.339Z,3.70
2023-02-08T12:36:05.476Z,4.53
2023-02-08T12:39:00.380Z,4.00
2023-02-08T12:41:31.460Z,2.93
2023-02-08T12:44:20.404Z,3.60
2023-02-08T12:46:48.262Z,3.80
2023-02-08T12:49:37.267Z,3.93
2023-02-08T12:52:29.146Z,3.13
2023-02-08T12:54:59.110Z,4.03
2023-02-08T12:57:26.664Z,4.23
2023-02-08T12:59:59.368Z,4.05
2023-02-08T13:02:33.614Z,5.40
2023-02-08T13:05:01.133Z,3.23
2023-02-08T13:07:34.193Z,4.53
2023-02-08T13:10:23.296Z,3.97
2023-02-08T13:12:51.653Z,3.87
2023-02-08T13:15:37.181Z,20.40
2023-02-08T13:18:19.492Z,3.78
2023-02-08T13:20:52.966Z,5.77
2023-02-08T13:23:51.617Z,3.87
2023-02-08T13:26:11.811Z,4.93
2023-02-08T13:28:39.370Z,4.63
2023-02-08T13:31:09.753Z,4.33
2023-02-08T13:33:42.633Z,2.87
2023-02-08T13:36:07.556Z,5.17
2023-02-08T13:38:35.148Z,5.50
2023-02-08T13:41:08.434Z,5.77
2023-02-08T13:43:48.340Z,3.95
2023-02-08T13:46:16.663Z,4.20
2023-02-08T13:48:50.146Z,3.27
2023-02-08T13:51:30.403Z,3.43
2023-02-08T13:53:57.976Z,3.80
2023-02-08T13:56:37.654Z,3.37
2023-02-08T13:59:05.187Z,3.43
2023-02-08T14:01:35.275Z,5.23
2023-02-08T14:04:08.502Z,3.60
2023-02-08T14:06:36.032Z,5.70
2023-02-08T14:09:06.520Z,3.30
2023-02-08T14:11:40.898Z,3.63
2023-02-08T14:14:14.293Z,4.67
2023-02-08T14:16:41.819Z,3.87
2023-02-08T14:19:18.418Z,4.40
2023-02-08T14:22:01.156Z,4.43
2023-02-08T14:24:35.537Z,4.23
2023-02-08T14:27:11.922Z,3.43
2023-02-08T14:29:39.447Z,3.47
2023-02-08T14:32:07.092Z,4.57
2023-02-08T14:34:35.459Z,4.17
2023-02-08T14:37:11.207Z,3.45
2023-02-08T14:39:38.769Z,5.50
2023-02-08T14:42:06.315Z,4.13
2023-02-08T14:44:39.792Z,4.97
2023-02-08T14:47:25.710Z,3.73
2023-02-08T14:50:05.864Z,2.80
2023-02-08T14:52:35.269Z,2.60
2023-02-08T14:55:00.984Z,3.97
2023-02-08T14:57:32.033Z,2.93
2023-02-08T14:59:59.581Z,2.80
2023-02-08T15:02:27.880Z,3.47
2023-02-08T15:04:55.432Z,3.37
2023-02-08T15:07:33.589Z,3.73
2023-02-08T15:09:59.445Z,2.50
2023-02-08T15:12:32.710Z,3.13
2023-02-08T15:15:01.076Z,4.00
2023-02-08T15:17:37.468Z,4.73
2023-02-08T15:20:05.812Z,2.65
2023-02-08T15:22:36.506Z,2.90
2023-02-08T15:25:28.696Z,2.57
2023-02-08T15:27:56.247Z,3.37
2023-02-08T15:30:26.713Z,3.20
2023-02-08T15:32:55.038Z,3.40
2023-02-08T15:35:22.574Z,3.37
2023-02-08T15:37:50.094Z,2.73
2023-02-08T15:40:30.485Z,2.83
2023-02-08T15:43:03.427Z,2.83
2023-02-08T15:45:31.046Z,3.47
2023-02-08T15:47:58.536Z,4.47
2023-02-08T15:50:26.063Z,2.90
2023-02-08T15:52:56.510Z,4.47
2023-02-08T15:55:24.448Z,6.20
2023-02-08T15:58:03.896Z,6.57
2023-02-08T16:00:31.481Z,3.13
2023-02-08T16:03:08.350Z,3.77
2023-02-08T16:05:35.862Z,4.53
2023-02-08T16:08:03.386Z,5.10
2023-02-08T16:10:36.375Z,2.33
2023-02-08T16:13:06.677Z,4.70
2023-02-08T16:15:40.158Z,4.03
2023-02-08T16:18:07.704Z,5.87
2023-02-08T16:20:35.314Z,2.83
2023-02-08T16:23:02.840Z,3.90
2023-02-08T16:25:30.334Z,6.10
2023-02-08T16:27:57.955Z,6.37
2023-02-08T16:30:26.265Z,3.37
2023-02-08T16:32:53.763Z,4.97
2023-02-08T16:35:28.099Z,2.43
2023-02-08T16:37:59.067Z,3.00
2023-02-08T16:40:38.904Z,3.30
2023-02-08T16:43:15.705Z,4.60
2023-02-08T16:45:43.286Z,3.70
2023-02-08T16:48:28.714Z,3.65
2023-02-08T16:50:54.522Z,3.37
2023-02-08T16:53:25.933Z,4.80
2023-02-08T16:55:50.341Z,3.27
2023-02-08T16:58:17.914Z,3.13
2023-02-08T17:00:45.865Z,4.50
2023-02-08T17:03:13.779Z,4.57
2023-02-08T17:05:41.317Z,2.50
2023-02-08T17:08:08.862Z,5.23
2023-02-08T17:10:36.385Z,4.37
2023-02-08T17:13:19.115Z,5.27
2023-02-08T17:15:32.270Z,8.33
2023-02-08T17:17:59.813Z,11.47
2023-02-08T17:20:33.163Z,7.13
2023-02-08T17:23:00.706Z,4.30
2023-02-08T17:25:28.206Z,6.03
2023-02-08T17:27:56.597Z,7.37
2023-02-08T17:30:27.056Z,4.53
2023-02-08T17:32:58.049Z,5.77
2023-02-08T17:35:25.599Z,5.53
2023-02-08T17:37:53.890Z,5.97
2023-02-08T17:40:21.465Z,4.10
2023-02-08T17:42:49.045Z,5.40
2023-02-08T17:45:16.559Z,8.47
2023-02-08T17:47:44.875Z,12.73
2023-02-08T17:50:12.448Z,9.73
2023-02-08T17:52:39.993Z,8.00
2023-02-08T17:55:07.569Z,9.70
2023-02-08T17:57:35.141Z,4.83
2023-02-08T18:00:02.692Z,6.03
2023-02-08T18:02:30.218Z,9.80
2023-02-08T18:04:57.865Z,3.90
2023-02-08T18:07:25.386Z,6.33
2023-02-08T18:09:52.973Z,8.33
2023-02-08T18:12:21.315Z,13.63
2023-02-08T18:14:48.861Z,14.70
2023-02-08T18:17:16.384Z,19.23
2023-02-08T18:19:43.958Z,15.07
2023-02-08T18:22:11.506Z,16.53
2023-02-08T18:24:39.038Z,18.30
2023-02-08T18:27:07.379Z,19.23
2023-02-08T18:29:34.907Z,13.27
2023-02-08T18:32:02.497Z,11.77
2023-02-08T18:34:30.785Z,23.30
2023-02-08T18:36:58.324Z,10.03
2023-02-08T18:39:25.878Z,13.90
2023-02-08T18:41:53.727Z,12.97
2023-02-08T18:44:21.285Z,10.70
2023-02-08T18:46:48.877Z,15.50
2023-02-08T18:49:17.144Z,14.10
2023-02-08T18:51:44.681Z,15.83
2023-02-08T18:54:12.226Z,14.03
2023-02-08T18:56:39.805Z,20.87
2023-02-08T18:59:07.356Z,15.07
2023-02-08T19:01:34.924Z,7.67
2023-02-08T19:04:05.790Z,10.53
2023-02-08T19:06:33.335Z,10.57
2023-02-08T19:09:00.866Z,15.73
2023-02-08T19:11:28.457Z,23.20
2023-02-08T19:13:55.990Z,12.33
2023-02-08T19:16:23.555Z,11.68
2023-02-08T19:18:51.857Z,9.00
2023-02-08T19:21:19.400Z,9.53
2023-02-08T19:23:46.944Z,12.73
2023-02-08T19:26:17.157Z,8.50
2023-02-08T19:28:44.701Z,7.17
2023-02-08T19:31:12.356Z,7.87
2023-02-08T19:33:40.963Z,7.83
2023-02-08T19:36:08.485Z,7.20
2023-02-08T19:38:36.805Z,6.57
2023-02-08T19:41:04.400Z,6.30
2023-02-08T19:43:31.922Z,6.80
2023-02-08T19:45:59.492Z,6.60
2023-02-08T19:48:27.780Z,34.67
2023-02-08T19:50:55.342Z,54.80
2023-02-08T19:53:22.869Z,35.58
2023-02-08T19:55:59.468Z,26.00
2023-02-08T19:58:26.961Z,14.23
2023-02-08T20:00:55.316Z,8.83
2023-02-08T20:03:22.837Z,10.37
2023-02-08T20:05:50.371Z,9.07
2023-02-08T20:08:18.677Z,7.03
2023-02-08T20:10:46.255Z,9.67
2023-02-08T20:13:13.771Z,9.40
2023-02-08T20:15:42.395Z,6.97
2023-02-08T20:18:09.930Z,14.50
2023-02-08T20:20:37.465Z,9.50
2023-02-08T20:23:14.140Z,7.57
2023-02-08T20:25:32.580Z,10.30
2023-02-08T20:28:00.970Z,18.65
2023-02-08T20:30:28.419Z,18.10
2023-02-08T20:32:56.752Z,22.83
2023-02-08T20:35:24.285Z,19.23
2023-02-08T20:37:51.828Z,14.43
2023-02-08T20:40:19.405Z,14.27
2023-02-08T20:42:46.953Z,45.17
2023-02-08T20:45:15.382Z,14.77
2023-02-08T20:47:46.600Z,12.93
2023-02-08T20:50:18.132Z,13.50
2023-02-08T20:52:37.910Z,14.23
2023-02-08T20:55:05.506Z,16.70
2023-02-08T20:57:33.045Z,16.13
2023-02-08T21:00:00.578Z,10.13
2023-02-08T21:02:29.723Z,13.57
2023-02-08T21:04:57.226Z,14.53
2023-02-08T21:07:25.533Z,14.73
2023-02-08T21:09:53.387Z,18.00
2023-02-08T21:12:20.933Z,26.90
2023-02-08T21:14:49.226Z,30.30
2023-02-08T21:17:16.809Z,17.40
2023-02-08T21:19:44.355Z,21.70
2023-02-08T21:22:11.889Z,41.17
2023-02-08T21:24:39.478Z,38.07
2023-02-08T21:27:07.033Z,29.70
2023-02-08T21:29:34.551Z,25.87
2023-02-08T21:32:03.284Z,21.30
2023-02-08T21:34:30.465Z,19.13
2023-02-08T21:36:58.017Z,16.83
2023-02-08T21:39:25.564Z,19.23
2023-02-08T21:41:53.136Z,18.67
2023-02-08T21:44:20.665Z,17.33
2023-02-08T21:46:48.523Z,16.93
2023-02-08T21:49:34.131Z,16.07
2023-02-08T21:52:19.755Z,15.63
2023-02-08T21:54:48.058Z,15.40
2023-02-08T21:57:18.319Z,14.07
2023-02-08T21:59:45.901Z,18.13
2023-02-08T22:02:14.227Z,31.67
2023-02-08T22:04:59.701Z,41.13
2023-02-08T22:07:27.230Z,46.97
2023-02-08T22:09:55.549Z,28.10
2023-02-08T22:12:23.150Z,28.90
2023-02-08T22:14:50.665Z,24.90
2023-02-08T22:17:18.173Z,20.17
2023-02-08T22:19:46.549Z,19.93
2023-02-08T22:22:14.086Z,19.13
2023-02-08T22:24:41.642Z,19.87
2023-02-08T22:27:09.184Z,16.37
2023-02-08T22:29:36.725Z,16.23
2023-02-08T22:32:04.344Z,19.10
2023-02-08T22:34:31.854Z,18.37
2023-02-08T22:36:59.380Z,18.17
2023-02-08T22:39:26.909Z,17.13
2023-02-08T22:41:54.467Z,16.77
2023-02-08T22:44:22.041Z,17.70
2023-02-08T22:46:49.615Z,14.83
2023-02-08T22:49:17.143Z,18.85
2023-02-08T22:51:44.693Z,16.37
2023-02-08T22:54:12.228Z,18.67
2023-02-08T22:56:39.802Z,15.43
2023-02-08T22:59:07.349Z,14.43
2023-02-08T23:01:34.920Z,16.33
2023-02-08T23:04:03.051Z,16.53
2023-02-08T23:06:30.632Z,20.83
2023-02-08T23:08:58.157Z,18.77
2023-02-08T23:11:25.833Z,19.50
2023-02-08T23:13:53.387Z,20.70
2023-02-08T23:16:20.954Z,19.00
2023-02-08T23:18:49.536Z,17.17
2023-02-08T23:21:17.094Z,16.57
2023-02-08T23:23:45.393Z,31.97
2023-02-08T23:26:12.970Z,29.33
2023-02-08T23:28:40.521Z,22.37
2023-02-08T23:31:08.202Z,24.30
2023-02-08T23:33:35.639Z,25.17
2023-02-08T23:36:06.320Z,24.70
2023-02-08T23:38:33.848Z,25.17
2023-02-08T23:41:09.886Z,31.37
2023-02-08T23:43:37.441Z,30.90
2023-02-08T23:46:10.783Z,28.63
2023-02-08T23:48:39.414Z,27.97
2023-02-08T23:51:06.684Z,24.27
2023-02-08T23:53:34.227Z,26.60
2023-02-08T23:56:10.433Z,22.30
2023-02-08T23:58:37.983Z,27.73
